Time;durP1;ratioP1;P1;durP2;ratioP2;P2;SDS_P1;SDS_P2;PMS_P1;PMS_P2;Temp;Humidity;BMP_temperature;BMP_pressure;BME280_temperature;BME280_humidity;BME280_pressure;Samples;Min_cycle;Max_cycle;Signal;HPM_P1;HPM_P2
2023/08/23 00:02:20;;;;;;;7.60;5.47;;;;;;;24.48;69.46;157666.06;5054745;28;20466;-86
2023/08/23 00:04:47;;;;;;;6.93;6.23;;;;;;;24.46;69.82;157659.53;5032356;28;20458;-86
2023/08/23 00:07:13;;;;;;;6.27;5.77;;;;;;;24.42;70.04;157650.34;5059795;28;20482;-86
2023/08/23 00:09:40;;;;;;;5.60;5.10;;;;;;;24.39;70.03;157641.19;5023718;28;20443;-86
2023/08/23 00:12:08;;;;;;;6.60;6.00;;;;;;;24.35;70.21;157630.75;5044373;28;20463;-85
2023/08/23 00:14:35;;;;;;;6.00;5.40;;;;;;;24.33;70.72;157625.53;5028659;28;20438;-86
2023/08/23 00:17:02;;;;;;;5.80;5.20;;;;;;;24.29;70.38;157616.34;5039326;28;20815;-85
2023/08/23 00:19:28;;;;;;;6.93;6.00;;;;;;;24.27;70.27;157609.81;5031511;28;20486;-85
2023/08/23 00:21:55;;;;;;;6.20;5.70;;;;;;;24.20;70.61;157594.09;5063235;28;20450;-85
2023/08/23 00:24:21;;;;;;;6.00;5.40;;;;;;;24.18;70.97;157587.56;5008457;28;20532;-85
2023/08/23 00:26:48;;;;;;;6.70;6.10;;;;;;;24.16;71.31;157583.69;5056483;28;20459;-86
2023/08/23 00:29:16;;;;;;;12.93;6.50;;;;;;;24.14;71.73;157578.47;5036971;28;20451;-85
2023/08/23 00:31:42;;;;;;;7.17;6.47;;;;;;;24.13;71.70;157575.81;5046067;28;20474;-85
2023/08/23 00:34:09;;;;;;;6.50;6.00;;;;;;;24.10;72.19;157566.66;5043509;28;20459;-85
2023/08/23 00:36:35;;;;;;;6.97;6.37;;;;;;;24.07;72.08;157560.06;5059079;28;20451;-85
2023/08/23 00:39:02;;;;;;;7.33;6.70;;;;;;;24.03;71.59;157548.31;5063283;28;20478;-85
2023/08/23 00:41:30;;;;;;;6.27;5.77;;;;;;;24.01;72.10;157543.09;5014824;28;20455;-85
2023/08/23 00:43:56;;;;;;;6.97;5.93;;;;;;;23.95;72.39;157528.69;5011101;28;20821;-85
2023/08/23 00:46:24;;;;;;;7.53;6.70;;;;;;;23.92;72.40;157520.84;5029145;28;20456;-85
2023/08/23 00:48:51;;;;;;;7.03;6.43;;;;;;;23.88;72.62;157510.38;5011673;28;20975;-85
2023/08/23 00:51:18;;;;;;;6.60;6.00;;;;;;;23.88;72.87;157510.38;5054767;28;20443;-85
2023/08/23 00:53:44;;;;;;;7.30;6.60;;;;;;;23.81;72.89;157492.06;5027335;28;20484;-86
2023/08/23 00:56:12;;;;;;;6.10;5.50;;;;;;;23.75;73.24;157476.38;5022164;28;20507;-85
2023/08/23 00:58:39;;;;;;;6.87;6.17;;;;;;;23.78;73.20;157484.22;5044399;28;20813;-85
2023/08/23 01:01:06;;;;;;;6.27;5.77;;;;;;;23.73;73.55;157471.16;5046462;28;20488;-85
2023/08/23 01:03:34;;;;;;;7.57;5.90;;;;;;;23.68;73.62;157456.78;5024912;28;20453;-85
2023/08/23 01:06:19;;;;;;;10.43;6.97;;;;;;;23.60;74.12;157438.50;5058101;28;20478;-85
2023/08/23 01:08:51;;;;;;;7.43;6.67;;;;;;;23.62;74.34;157442.38;5009876;28;20999;-85
2023/08/23 01:11:25;;;;;;;6.90;6.30;;;;;;;23.56;74.53;157428.00;5035556;28;20461;-85
2023/08/23 01:13:55;;;;;;;8.83;6.87;;;;;;;23.54;74.72;157421.47;5049477;28;20451;-85
2023/08/23 01:16:24;;;;;;;7.50;6.70;;;;;;;23.52;75.03;157416.25;5012920;28;20462;-85
2023/08/23 01:18:52;;;;;;;6.93;6.33;;;;;;;23.48;75.33;157405.81;5056226;28;20446;-85
2023/08/23 01:21:25;;;;;;;7.03;6.37;;;;;;;23.47;75.48;157403.19;5043017;28;20478;-85
2023/08/23 01:23:54;;;;;;;7.33;6.63;;;;;;;23.45;75.63;157399.28;5023749;28;20486;-85
2023/08/23 01:26:21;;;;;;;7.30;6.60;;;;;;;23.43;75.89;157392.75;5046936;28;20450;-85
2023/08/23 01:28:50;;;;;;;8.30;6.80;;;;;;;23.39;75.52;157383.59;5061607;28;20459;-85
2023/08/23 01:31:17;;;;;;;7.30;6.60;;;;;;;23.39;76.14;157382.28;5053226;28;20437;-85
2023/08/23 01:33:49;;;;;;;6.70;6.10;;;;;;;23.36;76.04;157374.38;5057265;28;20541;-85
2023/08/23 01:36:21;;;;;;;7.30;6.60;;;;;;;23.34;76.29;157369.16;5059039;28;20454;-85
2023/08/23 01:38:48;;;;;;;7.63;6.93;;;;;;;23.30;76.68;157358.72;5060757;28;20855;-85
2023/08/23 01:41:16;;;;;;;7.67;6.93;;;;;;;23.26;76.40;157349.56;5031849;28;20490;-85
2023/08/23 01:43:45;;;;;;;8.17;7.37;;;;;;;23.22;77.05;157339.06;5067037;28;20980;-85
2023/08/23 01:46:12;;;;;;;7.57;6.87;;;;;;;23.15;77.07;157320.81;5035754;28;20788;-85
2023/08/23 01:48:38;;;;;;;7.50;6.90;;;;;;;23.13;77.73;157315.59;5030389;28;20444;-85
2023/08/23 01:51:06;;;;;;;7.67;6.97;;;;;;;23.14;77.49;157316.91;5055657;28;20455;-85
2023/08/23 01:53:32;;;;;;;7.47;6.77;;;;;;;23.16;77.38;157322.13;5015901;28;20474;-85
2023/08/23 01:55:59;;;;;;;8.80;7.80;;;;;;;23.15;77.11;157319.47;5046695;28;20449;-85
2023/08/23 01:58:27;;;;;;;8.40;7.60;;;;;;;23.14;77.66;157316.91;5024482;28;20466;-85
2023/08/23 02:00:54;;;;;;;7.80;7.10;;;;;;;23.06;77.86;157296.00;5044641;28;20853;-85
2023/08/23 02:03:21;;;;;;;7.53;6.80;;;;;;;23.02;77.99;157288.16;5043118;28;20428;-85
2023/08/23 02:05:47;;;;;;;8.60;7.80;;;;;;;23.00;78.11;157282.94;5046333;28;20460;-85
2023/08/23 02:08:14;;;;;;;8.27;7.57;;;;;;;22.99;78.12;157280.28;5035554;28;20546;-85
2023/08/23 02:10:41;;;;;;;7.93;7.13;;;;;;;22.98;78.47;157276.41;5047336;28;20915;-85
2023/08/23 02:13:07;;;;;;;12.50;7.93;;;;;;;22.96;78.37;157272.44;5046639;28;20794;-85
2023/08/23 02:15:36;;;;;;;8.50;7.70;;;;;;;22.94;78.43;157265.91;5013332;28;20996;-85
2023/08/23 02:18:03;;;;;;;8.53;7.50;;;;;;;22.91;78.80;157259.38;5049913;28;20475;-84
2023/08/23 02:20:29;;;;;;;8.20;7.50;;;;;;;22.92;78.53;157260.69;5062970;28;20459;-84
2023/08/23 02:22:56;;;;;;;8.33;7.60;;;;;;;22.89;78.68;157252.84;5041993;28;20903;-85
2023/08/23 02:25:22;;;;;;;7.83;7.13;;;;;;;22.86;78.68;157246.31;5056025;28;20449;-85
2023/08/23 02:27:49;;;;;;;9.07;8.13;;;;;;;22.77;79.35;157222.78;5033982;28;20470;-85
2023/08/23 02:30:15;;;;;;;7.63;6.93;;;;;;;22.70;79.45;157204.50;5043465;28;20461;-85
2023/08/23 02:32:43;;;;;;;8.00;7.30;;;;;;;22.69;79.63;157201.88;5065480;28;20459;-85
2023/08/23 02:35:10;;;;;;;7.93;7.33;;;;;;;22.66;80.31;157192.78;5049271;28;20788;-85
2023/08/23 02:37:36;;;;;;;8.10;7.50;;;;;;;22.64;80.14;157187.50;5029701;28;20519;-85
2023/08/23 02:40:04;;;;;;;9.53;7.97;;;;;;;22.60;80.27;157177.03;5052791;28;20470;-85
2023/08/23 02:42:30;;;;;;;8.00;7.37;;;;;;;22.57;80.52;157170.50;5066469;28;20467;-85
2023/08/23 02:44:57;;;;;;;8.10;7.30;;;;;;;22.56;80.85;157167.88;5012238;28;20452;-85
2023/08/23 02:47:24;;;;;;;8.37;7.47;;;;;;;22.54;80.76;157161.34;5056324;28;20864;-84
2023/08/23 02:49:52;;;;;;;8.13;7.40;;;;;;;22.52;81.03;157156.13;5047253;28;20454;-84
2023/08/23 02:52:20;;;;;;;8.43;7.73;;;;;;;22.54;80.70;157161.34;4999361;28;20483;-85
2023/08/23 02:54:47;;;;;;;8.80;8.00;;;;;;;22.52;80.88;157157.44;5019459;28;20507;-85
2023/08/23 02:57:13;;;;;;;8.73;8.00;;;;;;;22.53;80.99;157160.03;5047657;28;20452;-85
2023/08/23 02:59:40;;;;;;;8.97;8.07;;;;;;;22.52;81.08;157156.13;5052569;28;20438;-84
2023/08/23 03:02:06;;;;;;;9.00;8.10;;;;;;;22.45;82.22;157140.44;5038590;28;20454;-85
2023/08/23 03:04:33;;;;;;;8.90;8.00;;;;;;;22.50;81.40;157152.22;5014137;28;20453;-85
2023/08/23 03:07:00;;;;;;;9.30;8.37;;;;;;;22.42;81.82;157131.31;5057362;28;20473;-85
2023/08/23 03:09:27;;;;;;;8.13;7.13;;;;;;;22.32;82.31;157106.47;5032346;28;20458;-84
2023/08/23 03:11:53;;;;;;;10.30;9.03;;;;;;;22.24;82.78;157085.59;5064990;28;20462;-85
2023/08/23 03:14:20;;;;;;;9.20;8.40;;;;;;;22.21;82.91;157076.47;5051916;28;20480;-84
2023/08/23 03:16:47;;;;;;;8.97;8.17;;;;;;;22.18;82.57;157068.63;5065448;28;20455;-84
2023/08/23 03:19:14;;;;;;;9.03;8.20;;;;;;;22.14;82.56;157059.47;5022244;28;20798;-85
2023/08/23 03:21:40;;;;;;;10.27;9.37;;;;;;;22.17;82.63;157066.00;5023605;28;20485;-84
2023/08/23 03:24:10;;;;;;;9.20;8.30;;;;;;;22.19;82.48;157072.53;5026561;28;20762;-84
2023/08/23 03:26:36;;;;;;;9.20;8.30;;;;;;;22.17;83.27;157066.00;5032070;28;20454;-84
2023/08/23 03:29:03;;;;;;;9.00;8.20;;;;;;;22.15;83.30;157062.09;5028833;28;20437;-84
2023/08/23 03:31:30;;;;;;;9.80;8.63;;;;;;;22.13;83.60;157055.56;5018016;28;20449;-84
2023/08/23 03:33:57;;;;;;;8.90;8.00;;;;;;;22.09;83.43;157046.41;5021832;28;20435;-86
2023/08/23 03:36:25;;;;;;;8.27;7.47;;;;;;;22.07;84.06;157041.22;5015029;28;20435;-86
2023/08/23 03:38:51;;;;;;;9.07;8.17;;;;;;;22.07;84.08;157039.88;5012862;28;20489;-86
2023/08/23 03:41:19;;;;;;;8.23;7.57;;;;;;;22.05;84.35;157036.00;5051491;28;20803;-86
2023/08/23 03:43:46;;;;;;;8.73;7.93;;;;;;;22.04;84.04;157032.03;5052345;28;20942;-86
2023/08/23 03:46:13;;;;;;;8.67;7.93;;;;;;;22.05;84.39;157034.69;5038597;28;20540;-85
2023/08/23 03:48:40;;;;;;;9.20;8.30;;;;;;;22.04;84.59;157032.03;5035126;28;20461;-85
2023/08/23 03:51:07;;;;;;;9.63;8.50;;;;;;;22.07;84.44;157039.88;5063296;28;20459;-85
2023/08/23 03:53:34;;;;;;;9.20;8.20;;;;;;;22.05;84.49;157034.69;5032078;28;20467;-85
2023/08/23 03:56:02;;;;;;;9.10;8.23;;;;;;;22.01;84.64;157024.22;5044480;28;20537;-85
2023/08/23 03:58:31;;;;;;;9.27;8.37;;;;;;;22.03;84.99;157029.47;5021397;28;20537;-85
2023/08/23 04:00:57;;;;;;;11.20;8.60;;;;;;;22.03;84.96;157030.72;5038888;28;20497;-85
2023/08/23 04:03:24;;;;;;;9.53;8.60;;;;;;;21.96;84.97;157011.16;5040215;28;20530;-86
2023/08/23 04:05:50;;;;;;;9.77;8.77;;;;;;;21.90;85.09;156995.47;5041016;28;20459;-85
2023/08/23 04:08:17;;;;;;;8.93;8.07;;;;;;;21.79;85.92;156969.31;5026582;28;20459;-85
2023/08/23 04:10:46;;;;;;;10.00;9.17;;;;;;;21.76;86.48;156960.22;5049188;28;20811;-85
2023/08/23 04:13:13;;;;;;;9.50;8.70;;;;;;;21.74;86.41;156954.94;5044377;28;20436;-85
2023/08/23 04:15:42;;;;;;;9.57;8.53;;;;;;;21.73;86.81;156952.38;4997059;28;20462;-85
2023/08/23 04:18:09;;;;;;;10.23;9.33;;;;;;;21.71;87.08;156947.16;5037515;28;20493;-85
2023/08/23 04:20:36;;;;;;;9.73;8.90;;;;;;;21.63;87.55;156927.53;5047486;28;20679;-86
2023/08/23 04:23:03;;;;;;;9.50;8.67;;;;;;;21.61;87.64;156921.00;5026374;28;20447;-85
2023/08/23 04:25:31;;;;;;;9.23;8.33;;;;;;;21.62;87.42;156924.97;5040225;28;20466;-84
2023/08/23 04:27:57;;;;;;;10.00;9.10;;;;;;;21.61;88.04;156921.00;5021156;28;20542;-84
2023/08/23 04:30:25;;;;;;;10.27;9.33;;;;;;;21.57;87.53;156911.91;4996992;28;20459;-87
2023/08/23 04:32:56;;;;;;;10.67;9.67;;;;;;;21.59;87.93;156915.81;5007870;28;20493;-86
2023/08/23 04:35:23;;;;;;;10.20;9.20;;;;;;;21.61;87.62;156922.31;5004281;28;20451;-86
2023/08/23 04:37:49;;;;;;;10.07;9.07;;;;;;;21.64;87.58;156928.84;5018424;28;20464;-85
2023/08/23 04:40:17;;;;;;;9.40;8.60;;;;;;;21.60;87.42;156919.75;5015561;28;20477;-86
2023/08/23 04:42:44;;;;;;;9.17;8.13;;;;;;;21.56;87.58;156909.28;5043081;28;20485;-84
2023/08/23 04:45:11;;;;;;;9.97;8.47;;;;;;;21.56;87.74;156907.97;5024791;28;20458;-86
2023/08/23 04:47:38;;;;;;;8.87;8.17;;;;;;;21.58;88.30;156914.47;5047004;28;20446;-85
2023/08/23 04:50:08;;;;;;;9.80;9.00;;;;;;;21.66;86.91;156934.06;5047582;28;20442;-86
2023/08/23 04:52:35;;;;;;;9.30;8.37;;;;;;;21.76;86.46;156960.22;5044499;28;20521;-86
2023/08/23 04:55:02;;;;;;;9.47;8.67;;;;;;;21.81;86.60;156973.25;5045707;28;20487;-86
2023/08/23 04:57:29;;;;;;;9.07;8.17;;;;;;;21.79;86.35;156969.31;5039184;28;20572;-84
2023/08/23 04:59:58;;;;;;;9.80;8.90;;;;;;;21.78;86.53;156965.41;5009008;28;20450;-86
2023/08/23 05:02:25;;;;;;;10.87;9.97;;;;;;;21.74;86.66;156956.25;5008164;28;20471;-86
2023/08/23 05:04:54;;;;;;;9.27;8.40;;;;;;;21.79;86.57;156969.31;5048057;28;20503;-86
2023/08/23 05:07:22;;;;;;;9.63;8.80;;;;;;;21.85;86.74;156985.00;5035072;28;20838;-86
2023/08/23 05:09:48;;;;;;;9.13;8.33;;;;;;;21.88;86.17;156991.56;5053106;28;20442;-86
2023/08/23 05:12:16;;;;;;;9.60;8.80;;;;;;;21.85;86.32;156985.00;5030159;28;20466;-86
2023/08/23 05:14:42;;;;;;;9.37;8.57;;;;;;;21.83;86.63;156979.78;5020366;28;20466;-86
2023/08/23 05:17:09;;;;;;;9.53;8.73;;;;;;;21.83;87.09;156979.78;5069454;28;21165;-86
2023/08/23 05:19:36;;;;;;;9.80;8.90;;;;;;;21.84;87.10;156981.09;5049723;28;20460;-85
2023/08/23 05:22:02;;;;;;;9.87;8.97;;;;;;;21.83;87.01;156979.78;5019999;28;20522;-86
2023/08/23 05:24:31;;;;;;;10.87;9.73;;;;;;;21.94;86.98;157005.94;5069850;28;20454;-84
2023/08/23 05:26:57;;;;;;;8.87;8.17;;;;;;;21.95;87.37;157008.56;5071125;28;20459;-84
2023/08/23 05:29:24;;;;;;;9.53;8.73;;;;;;;21.97;86.78;157015.09;5028724;28;20848;-85
2023/08/23 05:31:50;;;;;;;9.73;8.83;;;;;;;22.04;87.15;157032.03;5050591;28;21063;-84
2023/08/23 05:34:17;;;;;;;9.90;9.00;;;;;;;22.14;86.64;157058.16;5072075;28;20486;-84
2023/08/23 05:36:44;;;;;;;10.27;9.27;;;;;;;22.35;85.37;157113.00;5067927;28;20512;-84
2023/08/23 05:39:11;;;;;;;10.87;9.93;;;;;;;22.51;84.58;157153.50;5030921;28;20983;-85
2023/08/23 05:41:39;;;;;;;9.33;8.43;;;;;;;22.59;84.56;157174.41;5019723;28;20848;-85
2023/08/23 05:44:06;;;;;;;9.30;8.47;;;;;;;22.85;82.85;157242.38;5053300;28;20454;-85
2023/08/23 05:46:32;;;;;;;9.37;8.67;;;;;;;22.92;82.30;157262.03;5016476;28;20458;-85
2023/08/23 05:48:59;;;;;;;9.80;8.80;;;;;;;22.97;82.63;157275.09;5037208;28;20561;-85
2023/08/23 05:51:25;;;;;;;9.83;9.03;;;;;;;23.06;82.70;157296.00;5051235;28;20911;-85
2023/08/23 05:53:52;;;;;;;10.30;9.30;;;;;;;23.20;82.29;157332.53;5050318;28;20990;-85
2023/08/23 05:56:18;;;;;;;11.70;9.37;;;;;;;23.37;81.13;157378.38;5034550;28;20950;-83
2023/08/23 05:58:46;;;;;;;10.47;8.70;;;;;;;23.60;80.07;157437.16;5038208;28;20450;-84
2023/08/23 06:01:13;;;;;;;10.27;9.27;;;;;;;23.75;78.68;157476.38;5072539;28;20502;-84
2023/08/23 06:03:39;;;;;;;9.93;9.00;;;;;;;23.81;78.00;157492.06;5017878;28;20451;-85
2023/08/23 06:06:07;;;;;;;9.30;8.50;;;;;;;23.78;78.61;157484.22;5055716;28;20466;-84
2023/08/23 06:08:34;;;;;;;9.97;8.97;;;;;;;23.86;77.85;157503.84;5056941;28;20461;-85
2023/08/23 06:11:01;;;;;;;9.60;8.70;;;;;;;23.99;77.21;157537.81;5056146;28;20461;-84
2023/08/23 06:13:28;;;;;;;10.83;9.37;;;;;;;24.03;76.94;157549.63;5069234;28;21234;-85
2023/08/23 06:15:56;;;;;;;9.57;8.67;;;;;;;24.03;77.60;157549.63;5054523;28;20462;-85
2023/08/23 06:18:22;;;;;;;12.43;9.93;;;;;;;24.14;77.01;157578.47;5024097;28;20819;-85
2023/08/23 06:20:49;;;;;;;10.30;8.40;;;;;;;24.27;76.67;157609.81;5068917;28;20485;-85
2023/08/23 06:23:16;;;;;;;9.70;8.77;;;;;;;24.50;75.11;157669.97;5017002;28;20453;-84
2023/08/23 06:25:43;;;;;;;9.27;8.37;;;;;;;24.61;75.08;157700.06;5055558;28;20447;-84
2023/08/23 06:28:09;;;;;;;9.30;8.37;;;;;;;24.73;74.70;157731.44;5056507;28;20449;-85
2023/08/23 06:30:36;;;;;;;9.40;8.60;;;;;;;24.88;74.79;157769.47;5025642;28;20447;-85
2023/08/23 06:33:07;;;;;;;14.07;8.60;;;;;;;25.06;73.65;157815.25;5022054;28;20434;-84
2023/08/23 06:35:34;;;;;;;10.50;8.77;;;;;;;25.22;73.43;157858.44;5070543;28;20431;-85
2023/08/23 06:38:00;;;;;;;8.53;7.73;;;;;;;25.40;72.14;157904.22;5067687;28;20454;-85
2023/08/23 06:40:27;;;;;;;9.23;8.00;;;;;;;25.48;71.35;157923.91;5052897;28;20804;-85
2023/08/23 06:42:53;;;;;;;9.17;8.37;;;;;;;25.61;71.10;157957.94;5055123;28;20478;-85
2023/08/23 06:45:20;;;;;;;8.67;8.00;;;;;;;25.62;70.73;157960.56;5058007;28;20454;-85
2023/08/23 06:47:47;;;;;;;9.30;8.40;;;;;;;25.78;70.71;158002.47;5034151;28;20454;-85
2023/08/23 06:50:14;;;;;;;9.87;8.60;;;;;;;25.77;70.06;158001.13;5036254;28;20542;-85
2023/08/23 06:52:41;;;;;;;9.43;8.57;;;;;;;25.81;69.62;158010.31;5028059;28;20480;-85
2023/08/23 06:55:08;;;;;;;10.00;9.00;;;;;;;25.74;70.16;157991.97;5067772;28;20449;-85
2023/08/23 06:57:35;;;;;;;10.03;9.00;;;;;;;25.80;70.21;158009.00;5069543;28;20455;-85
2023/08/23 07:00:02;;;;;;;10.50;9.50;;;;;;;25.95;69.15;158046.94;5053345;28;20467;-85
2023/08/23 07:02:28;;;;;;;10.10;9.20;;;;;;;26.03;68.05;158069.22;5072966;28;20554;-85
2023/08/23 07:04:55;;;;;;;9.00;8.30;;;;;;;26.21;68.22;158115.06;5056436;28;20458;-85
2023/08/23 07:07:23;;;;;;;9.30;8.53;;;;;;;26.38;67.19;158158.31;5056824;28;20557;-86
2023/08/23 07:09:49;;;;;;;10.77;9.50;;;;;;;26.31;66.95;158141.31;5050884;28;20515;-86
2023/08/23 07:12:16;;;;;;;9.50;8.20;;;;;;;26.32;67.31;158142.56;5039708;28;20457;-86
2023/08/23 07:14:43;;;;;;;9.40;8.50;;;;;;;26.52;67.58;158196.31;5054518;28;20798;-85
2023/08/23 07:17:09;;;;;;;8.40;7.70;;;;;;;26.74;67.35;158252.59;5069200;28;20451;-85
2023/08/23 07:19:36;;;;;;;8.73;8.03;;;;;;;26.91;67.24;158297.19;5022520;28;20480;-85
2023/08/23 07:22:03;;;;;;;9.07;8.37;;;;;;;27.20;66.00;158371.88;5007273;28;20498;-86
2023/08/23 07:24:31;;;;;;;9.13;8.20;;;;;;;27.46;64.58;158440.06;5069511;28;21045;-86
2023/08/23 07:26:58;;;;;;;13.03;9.90;;;;;;;27.56;64.60;158466.25;5036451;28;20578;-86
2023/08/23 07:29:25;;;;;;;9.53;8.73;;;;;;;27.74;62.96;158512.16;5050066;28;20479;-86
2023/08/23 07:31:51;;;;;;;9.03;8.03;;;;;;;27.48;63.49;158445.28;5067906;28;20498;-86
2023/08/23 07:34:18;;;;;;;9.33;8.53;;;;;;;27.44;63.88;158434.81;5055825;28;20825;-86
2023/08/23 07:36:44;;;;;;;9.30;8.47;;;;;;;27.65;63.20;158488.53;5049854;28;20453;-86
2023/08/23 07:39:11;;;;;;;9.50;8.70;;;;;;;27.82;62.72;158531.81;5054138;28;21019;-86
2023/08/23 07:41:39;;;;;;;11.63;8.90;;;;;;;27.96;62.54;158568.53;5037931;28;20482;-86
2023/08/23 07:44:05;;;;;;;9.40;8.50;;;;;;;28.13;61.81;158614.44;5006021;28;20447;-86
2023/08/23 07:46:32;;;;;;;9.50;8.70;;;;;;;28.31;60.35;158660.31;5064102;28;20462;-86
2023/08/23 07:48:59;;;;;;;9.37;8.20;;;;;;;28.23;60.48;158640.66;5067983;28;20824;-88
2023/08/23 07:51:25;;;;;;;8.93;7.83;;;;;;;28.14;61.14;158615.78;5054121;28;20453;-88
2023/08/23 07:53:52;;;;;;;10.73;9.60;;;;;;;28.20;60.47;158632.78;5051728;28;20485;-87
2023/08/23 07:56:19;;;;;;;9.40;8.07;;;;;;;27.99;61.58;158576.34;5019110;28;20480;-88
2023/08/23 07:58:47;;;;;;;11.90;8.20;;;;;;;28.05;62.07;158593.47;5069273;28;20532;-87
2023/08/23 08:01:14;;;;;;;9.30;8.50;;;;;;;28.08;61.12;158601.34;5055860;28;20464;-88
2023/08/23 08:03:40;;;;;;;9.80;8.90;;;;;;;28.19;61.40;158628.88;5030854;28;20462;-86
2023/08/23 08:06:07;;;;;;;11.00;9.90;;;;;;;28.25;61.39;158644.63;5056163;28;20450;-86
2023/08/23 08:08:38;;;;;;;10.20;9.20;;;;;;;28.38;60.21;158678.72;5024128;28;20456;-86
2023/08/23 08:11:05;;;;;;;11.93;8.77;;;;;;;28.51;60.15;158712.81;5065561;28;21006;-87
2023/08/23 08:13:32;;;;;;;9.97;9.17;;;;;;;28.60;59.74;158735.06;5053368;28;20453;-87
2023/08/23 08:16:06;;;;;;;10.73;8.93;;;;;;;28.79;59.61;158786.28;5024485;28;20477;-87
2023/08/23 08:18:33;;;;;;;10.03;8.83;;;;;;;28.87;58.30;158805.94;5023979;28;20533;-87
2023/08/23 08:21:01;;;;;;;10.80;9.80;;;;;;;28.58;58.83;158731.16;5003153;28;20443;-87
2023/08/23 08:23:27;;;;;;;10.30;8.40;;;;;;;28.59;59.48;158732.47;5034012;28;20462;-87
2023/08/23 08:25:54;;;;;;;10.10;8.87;;;;;;;28.86;58.41;158804.63;5018746;28;20963;-87
2023/08/23 08:28:20;;;;;;;9.70;8.90;;;;;;;28.99;58.21;158837.44;5066077;28;20457;-89
2023/08/23 08:30:47;;;;;;;10.97;9.97;;;;;;;28.96;58.07;158830.84;5066530;28;20976;-89
2023/08/23 08:33:15;;;;;;;9.83;8.77;;;;;;;28.88;58.08;158809.91;5038314;28;20486;-89
2023/08/23 08:35:43;;;;;;;9.50;8.60;;;;;;;28.77;58.72;158779.72;5068331;28;21971;-89
2023/08/23 08:38:09;;;;;;;9.40;8.43;;;;;;;28.75;58.98;158775.75;5049675;28;20454;-89
2023/08/23 08:40:37;;;;;;;10.07;9.07;;;;;;;28.76;59.02;158777.09;5050240;28;20529;-88
2023/08/23 08:43:03;;;;;;;10.73;8.80;;;;;;;28.64;58.54;158746.94;5052964;28;20482;-85
2023/08/23 08:45:30;;;;;;;10.17;9.27;;;;;;;28.75;59.62;158774.50;5021341;28;20434;-88
2023/08/23 08:47:57;;;;;;;12.17;10.70;;;;;;;28.83;58.70;158796.75;5054921;28;20511;-88
2023/08/23 08:50:27;;;;;;;11.37;9.40;;;;;;;28.80;58.88;158787.59;5024192;28;20451;-88
2023/08/23 08:52:54;;;;;;;10.00;9.00;;;;;;;28.87;58.92;158807.25;5049225;28;20846;-88
2023/08/23 08:55:22;;;;;;;10.70;9.70;;;;;;;28.77;58.21;158781.03;5024521;28;20454;-88
2023/08/23 08:57:52;;;;;;;10.50;8.87;;;;;;;28.66;58.68;158752.19;5020795;28;20541;-89
2023/08/23 09:00:21;;;;;;;9.90;9.10;;;;;;;28.79;58.44;158786.28;5034074;28;20518;-89
2023/08/23 09:02:48;;;;;;;9.93;8.87;;;;;;;28.68;59.54;158757.41;5020816;28;20478;-89
2023/08/23 09:05:16;;;;;;;10.73;9.83;;;;;;;28.75;58.73;158774.50;5039896;28;20486;-89
2023/08/23 09:07:44;;;;;;;10.57;9.53;;;;;;;28.82;58.53;158794.16;5001878;28;20455;-89
2023/08/23 09:10:11;;;;;;;10.57;9.40;;;;;;;28.90;58.76;158815.13;5064582;28;20443;-89
2023/08/23 09:12:38;;;;;;;10.57;9.77;;;;;;;28.91;57.17;158816.47;5066964;28;20462;-89
2023/08/23 09:15:05;;;;;;;10.60;9.67;;;;;;;28.60;58.04;158735.06;5065328;28;20487;-88
2023/08/23 09:17:34;;;;;;;10.53;9.60;;;;;;;28.55;58.94;158723.28;5007544;28;20543;-88
2023/08/23 09:20:00;;;;;;;10.77;9.77;;;;;;;28.35;59.13;158670.84;5065794;28;20467;-88
2023/08/23 09:22:27;;;;;;;10.80;9.90;;;;;;;28.32;59.25;158664.28;5023838;28;21169;-88
2023/08/23 09:24:55;;;;;;;13.30;9.87;;;;;;;28.36;58.94;158673.44;5017047;28;20545;-88
2023/08/23 09:27:24;;;;;;;10.50;9.60;;;;;;;28.44;58.42;158694.41;5017399;28;20985;-88
2023/08/23 09:29:53;;;;;;;10.97;9.87;;;;;;;28.59;58.60;158733.78;5062900;28;20899;-89
2023/08/23 09:32:20;;;;;;;9.23;8.43;;;;;;;28.73;58.18;158770.53;5004931;28;20544;-88
2023/08/23 09:34:47;;;;;;;10.20;9.10;;;;;;;28.61;58.41;158739.03;5031236;28;20458;-88
2023/08/23 09:37:14;;;;;;;10.80;9.70;;;;;;;28.56;58.15;158725.91;5049625;28;20450;-88
2023/08/23 09:39:41;;;;;;;11.07;10.07;;;;;;;28.42;59.68;158689.19;5066911;28;21369;-88
2023/08/23 09:42:13;;;;;;;10.37;9.20;;;;;;;28.19;60.28;158630.19;5070835;28;20474;-88
2023/08/23 09:44:43;;;;;;;10.80;9.90;;;;;;;28.09;60.53;158603.94;5063535;28;20509;-88
2023/08/23 09:47:14;;;;;;;10.17;9.17;;;;;;;28.13;61.13;158613.13;5051146;28;20455;-89
2023/08/23 09:49:42;;;;;;;9.63;8.67;;;;;;;28.27;60.29;158651.19;5041540;28;20450;-88
2023/08/23 09:52:10;;;;;;;13.03;9.67;;;;;;;28.41;59.17;158685.25;5069970;28;20500;-89
2023/08/23 09:54:42;;;;;;;10.43;9.43;;;;;;;28.52;58.50;158715.41;5060437;28;20473;-88
2023/08/23 09:57:10;;;;;;;10.80;9.80;;;;;;;28.46;58.71;158699.69;5003677;28;20457;-89
2023/08/23 09:59:37;;;;;;;9.97;9.07;;;;;;;28.45;59.38;158695.72;5070928;28;20489;-88
2023/08/23 10:02:09;;;;;;;10.67;9.63;;;;;;;28.46;58.24;158699.69;5064737;28;20598;-88
2023/08/23 10:04:37;;;;;;;10.40;9.47;;;;;;;28.36;58.06;158673.44;5048145;28;20563;-88
2023/08/23 10:07:04;;;;;;;11.87;9.30;;;;;;;28.39;57.95;158681.31;5063339;28;20849;-88
2023/08/23 10:09:30;;;;;;;11.00;8.60;;;;;;;28.55;57.70;158723.28;5068873;28;20457;-88
2023/08/23 10:11:57;;;;;;;9.47;8.67;;;;;;;28.46;56.91;158698.38;5063789;28;20501;-88
2023/08/23 10:14:25;;;;;;;10.40;9.50;;;;;;;28.31;57.66;158660.31;5013886;28;20566;-88
2023/08/23 10:16:52;;;;;;;9.53;8.63;;;;;;;28.21;58.79;158635.44;5069409;28;20471;-88
2023/08/23 10:19:20;;;;;;;10.87;9.80;;;;;;;28.26;58.08;158647.22;5066940;28;21132;-88
2023/08/23 10:21:46;;;;;;;9.83;9.00;;;;;;;28.23;58.23;158639.34;5047571;28;20462;-88
2023/08/23 10:24:13;;;;;;;9.80;8.90;;;;;;;28.17;58.36;158624.91;5034735;28;20553;-89
2023/08/23 10:26:49;;;;;;;9.57;8.67;;;;;;;28.18;58.33;158626.22;5035845;28;21152;-89
2023/08/23 10:29:17;;;;;;;9.43;8.73;;;;;;;28.35;57.43;158672.16;5031475;28;20448;-88
2023/08/23 10:31:54;;;;;;;8.80;8.10;;;;;;;28.31;56.93;158660.31;5068948;28;20459;-89
2023/08/23 10:34:24;;;;;;;9.27;8.20;;;;;;;28.22;58.11;158638.03;5054951;28;20450;-88
2023/08/23 10:36:52;;;;;;;8.53;7.83;;;;;;;28.43;56.35;158690.50;5047084;28;20490;-88
2023/08/23 10:39:22;;;;;;;9.40;8.57;;;;;;;28.43;55.96;158691.81;5069473;28;20486;-89
2023/08/23 10:41:50;;;;;;;8.20;7.50;;;;;;;28.40;56.12;158683.94;5019761;28;20486;-88
2023/08/23 10:44:17;;;;;;;8.63;7.93;;;;;;;28.37;56.76;158676.06;5049219;28;20488;-88
2023/08/23 10:46:44;;;;;;;7.67;7.03;;;;;;;28.55;55.41;158721.94;5008014;28;21468;-88
2023/08/23 10:49:13;;;;;;;9.17;8.13;;;;;;;28.40;56.35;158683.94;5040294;28;21038;-89
2023/08/23 10:51:41;;;;;;;9.47;8.57;;;;;;;28.46;56.08;158699.69;5057168;28;20509;-88
2023/08/23 10:54:09;;;;;;;8.07;7.37;;;;;;;28.51;56.20;158712.81;5058543;28;20483;-88
2023/08/23 10:56:36;;;;;;;8.43;7.83;;;;;;;28.70;55.83;158761.38;5066948;28;20458;-88
2023/08/23 10:59:03;;;;;;;8.33;7.73;;;;;;;28.64;55.36;158746.94;5058970;28;20454;-89
2023/08/23 11:01:29;;;;;;;8.77;7.97;;;;;;;28.51;55.88;158711.47;5074576;28;20538;-88
2023/08/23 11:03:56;;;;;;;9.23;8.00;;;;;;;28.58;55.95;158731.16;5054374;28;20458;-89
2023/08/23 11:06:24;;;;;;;8.40;7.80;;;;;;;28.68;55.83;158757.41;5056686;28;20461;-89
2023/08/23 11:08:51;;;;;;;8.47;7.87;;;;;;;28.82;54.89;158794.16;5072398;28;20980;-88
2023/08/23 11:11:18;;;;;;;8.67;7.97;;;;;;;28.80;55.17;158788.91;5018424;28;20547;-89
2023/08/23 11:13:47;;;;;;;9.20;8.37;;;;;;;28.86;55.17;158803.31;5067827;28;20443;-89
2023/08/23 11:16:13;;;;;;;9.20;8.40;;;;;;;28.91;54.80;158817.72;5020651;28;20858;-89
2023/08/23 11:18:40;;;;;;;8.93;8.13;;;;;;;28.85;54.54;158802.03;5069525;28;20458;-89
2023/08/23 11:21:07;;;;;;;7.40;6.80;;;;;;;28.73;55.18;158770.53;5065995;28;20542;-89
2023/08/23 11:23:38;;;;;;;8.53;7.93;;;;;;;28.75;55.38;158774.50;5006078;28;20471;-88